createdAt,value
2022-08-24T00:02:16.959Z,100940.84
2022-08-24T00:05:02.554Z,100933.69
2022-08-24T00:07:49.191Z,100937.34
2022-08-24T00:10:34.186Z,100930.50
2022-08-24T00:13:19.804Z,100934.97
2022-08-24T00:16:07.397Z,100930.63
2022-08-24T00:18:52.740Z,100933.19
2022-08-24T00:21:37.873Z,100917.44
2022-08-24T00:24:23.161Z,100941.16
2022-08-24T00:27:08.901Z,100921.09
2022-08-24T00:29:54.064Z,100953.69
2022-08-24T00:32:39.345Z,100938.81
2022-08-24T00:35:24.662Z,100929.09
2022-08-24T00:38:09.612Z,100941.53
2022-08-24T00:40:54.594Z,100950.38
2022-08-24T00:43:40.040Z,100947.75
2022-08-24T00:46:27.757Z,100941.56
2022-08-24T00:49:37.023Z,100947.75
2022-08-24T00:52:27.488Z,100925.94
2022-08-24T00:55:23.400Z,100955.88
2022-08-24T00:58:20.592Z,100958.78
2022-08-24T01:01:09.073Z,100966.69
2022-08-24T01:03:57.239Z,100965.03
2022-08-24T01:06:42.773Z,100941.56
2022-08-24T01:09:27.840Z,100976.84
2022-08-24T01:12:14.273Z,100958.50
2022-08-24T01:15:01.729Z,100959.47
2022-08-24T01:17:47.037Z,100966.50
2022-08-24T01:20:32.209Z,100967.50
2022-08-24T01:23:38.273Z,100974.50
2022-08-24T01:26:42.523Z,100967.53
2022-08-24T01:29:29.872Z,100957.91
2022-08-24T01:32:18.714Z,100946.47
2022-08-24T01:35:04.887Z,100942.97
2022-08-24T01:37:51.293Z,100950.88
2022-08-24T01:40:43.902Z,100948.34
2022-08-24T01:43:29.926Z,100937.09
2022-08-24T01:46:15.662Z,100950.28
2022-08-24T01:49:00.922Z,100945.03
2022-08-24T01:51:45.993Z,100944.41
2022-08-24T01:54:31.141Z,100955.84
2022-08-24T01:57:17.066Z,100948.88
2022-08-24T02:00:06.984Z,100983.16
2022-08-24T02:02:52.312Z,100981.44
2022-08-24T02:05:37.484Z,100973.56
2022-08-24T02:08:22.499Z,100983.16
2022-08-24T02:11:08.423Z,100959.53
2022-08-24T02:13:53.541Z,100987.56
2022-08-24T02:16:40.265Z,100982.31
2022-08-24T02:19:26.093Z,100986.72
2022-08-24T02:22:11.577Z,100962.25
2022-08-24T02:24:56.630Z,100973.63
2022-08-24T02:27:41.627Z,100992.00
2022-08-24T02:30:29.158Z,100975.56
2022-08-24T02:33:14.487Z,100973.91
2022-08-24T02:35:59.684Z,100991.34
2022-08-24T02:38:44.468Z,100995.69
2022-08-24T02:41:29.476Z,101022.13
2022-08-24T02:44:14.414Z,101017.66
2022-08-24T02:46:59.359Z,101009.84
2022-08-24T02:49:44.447Z,101019.53
2022-08-24T02:52:29.477Z,101007.28
2022-08-24T02:55:19.849Z,101025.69
2022-08-24T02:58:05.899Z,101016.03
2022-08-24T03:00:51.304Z,101034.50
2022-08-24T03:03:36.649Z,101029.19
2022-08-24T03:06:21.636Z,101024.78
2022-08-24T03:09:06.948Z,101017.00
2022-08-24T03:11:51.977Z,100982.06
2022-08-24T03:14:37.376Z,100992.63
2022-08-24T03:17:22.302Z,100996.97
2022-08-24T03:20:10.340Z,100996.97
2022-08-24T03:22:55.522Z,100977.84
2022-08-24T03:25:40.753Z,100981.25
2022-08-24T03:28:25.655Z,100987.44
2022-08-24T03:31:10.921Z,101009.28
2022-08-24T03:33:56.296Z,100976.03
2022-08-24T03:36:43.440Z,100976.91
2022-08-24T03:39:28.548Z,100982.25
2022-08-24T03:42:14.864Z,100985.72
2022-08-24T03:44:59.844Z,100983.25
2022-08-24T03:47:44.689Z,100992.88
2022-08-24T03:50:30.369Z,100972.75
2022-08-24T03:53:15.609Z,100979.84
2022-08-24T03:56:00.510Z,100978.22
2022-08-24T03:58:52.448Z,100981.81
2022-08-24T04:01:38.542Z,100990.59
2022-08-24T04:04:24.450Z,101004.66
2022-08-24T04:07:09.636Z,100992.47
2022-08-24T04:09:54.931Z,101020.47
2022-08-24T04:12:39.933Z,101016.94
2022-08-24T04:15:25.073Z,101019.69
2022-08-24T04:18:10.832Z,101021.47
2022-08-24T04:20:55.743Z,101025.97
2022-08-24T04:23:46.853Z,101019.06
2022-08-24T04:26:44.780Z,101012.06
2022-08-24T04:29:31.038Z,101019.03
2022-08-24T04:32:16.663Z,101042.66
2022-08-24T04:35:01.982Z,101050.56
2022-08-24T04:37:47.288Z,101052.31
2022-08-24T04:40:33.018Z,101047.06
2022-08-24T04:43:20.078Z,101055.00
2022-08-24T04:46:07.221Z,101030.50
2022-08-24T04:48:52.527Z,101047.97
2022-08-24T04:51:37.718Z,101041.00
2022-08-24T04:54:22.868Z,101047.22
2022-08-24T04:57:08.015Z,101027.97
2022-08-24T04:59:56.626Z,101029.75
2022-08-24T05:02:44.852Z,101041.97
2022-08-24T05:05:30.504Z,101048.94
2022-08-24T05:08:16.709Z,101053.28
2022-08-24T05:11:04.900Z,101047.28
2022-08-24T05:13:54.776Z,101042.94
2022-08-24T05:16:40.088Z,101063.13
2022-08-24T05:19:30.987Z,101049.13
2022-08-24T05:22:16.789Z,101071.00
2022-08-24T05:25:02.239Z,101063.06
2022-08-24T05:27:48.295Z,101083.09
2022-08-24T05:30:33.521Z,101078.66
2022-08-24T05:33:18.744Z,101059.47
2022-08-24T05:36:06.188Z,101065.50
2022-08-24T05:38:53.478Z,101062.78
2022-08-24T05:41:44.526Z,101066.16
2022-08-24T05:44:31.205Z,101077.56
2022-08-24T05:47:16.130Z,101074.97
2022-08-24T05:50:01.789Z,101059.19
2022-08-24T05:52:46.874Z,101060.84
2022-08-24T05:55:32.329Z,101058.19
2022-08-24T05:58:22.936Z,101067.66
2022-08-24T06:01:17.712Z,101095.50
2022-08-24T06:04:03.130Z,101093.50
2022-08-24T06:06:48.838Z,101053.94
2022-08-24T06:09:34.005Z,101075.41
2022-08-24T06:12:18.938Z,101072.31
2022-08-24T06:15:04.627Z,101067.81
2022-08-24T06:17:50.327Z,101058.13
2022-08-24T06:20:41.697Z,101064.38
2022-08-24T06:23:26.634Z,101069.59
2022-08-24T06:26:15.856Z,101063.56
2022-08-24T06:29:02.143Z,101072.22
2022-08-24T06:31:54.383Z,101055.50
2022-08-24T06:34:40.111Z,101073.81
2022-08-24T06:37:26.259Z,101064.09
2022-08-24T06:40:13.968Z,101068.44
2022-08-24T06:43:03.138Z,101069.19
2022-08-24T06:45:48.557Z,101071.53
2022-08-24T06:48:34.394Z,101075.91
2022-08-24T06:51:21.044Z,101080.78
2022-08-24T06:54:05.993Z,101075.31
2022-08-24T06:56:51.346Z,101064.78
2022-08-24T06:59:36.443Z,101064.59
2022-08-24T07:02:21.721Z,101066.06
2022-08-24T07:05:07.297Z,101084.16
2022-08-24T07:07:52.309Z,101060.81
2022-08-24T07:10:37.130Z,101062.09
2022-08-24T07:13:22.484Z,101070.13
2022-08-24T07:16:07.552Z,101114.06
2022-08-24T07:18:52.831Z,101064.66
2022-08-24T07:21:38.981Z,101100.81
2022-08-24T07:24:25.240Z,101076.19
2022-08-24T07:27:10.681Z,101050.72
2022-08-24T07:30:16.153Z,101053.03
2022-08-24T07:33:01.060Z,101060.50
2022-08-24T07:35:45.971Z,101054.25
2022-08-24T07:38:31.288Z,101067.28
2022-08-24T07:41:43.574Z,101021.97
2022-08-24T07:44:21.317Z,101025.66
2022-08-24T07:47:21.060Z,101003.88
2022-08-24T07:50:13.712Z,101010.81
2022-08-24T07:52:58.947Z,101012.16
2022-08-24T07:55:52.814Z,100992.41
2022-08-24T07:58:37.854Z,101025.47
2022-08-24T08:01:23.843Z,101012.53
2022-08-24T08:04:09.806Z,101028.97
2022-08-24T08:09:41.198Z,100989.56
2022-08-24T08:12:27.658Z,101043.78
2022-08-24T08:15:12.858Z,101014.63
2022-08-24T08:17:58.449Z,101016.03
2022-08-24T08:20:43.691Z,101000.91
2022-08-24T08:23:28.563Z,101028.16
2022-08-24T08:26:21.747Z,100997.09
2022-08-24T08:29:07.680Z,100997.28
2022-08-24T08:31:53.491Z,101000.78
2022-08-24T08:34:38.692Z,101003.22
2022-08-24T08:37:23.948Z,101003.69
2022-08-24T08:40:36.720Z,101000.69
2022-08-24T08:43:37.681Z,101009.56
2022-08-24T08:46:40.534Z,101010.09
2022-08-24T08:49:51.164Z,100999.97
2022-08-24T08:52:36.474Z,100985.94
2022-08-24T08:55:36.062Z,100996.56
2022-08-24T08:58:24.549Z,101001.31
2022-08-24T09:01:32.991Z,100993.75
2022-08-24T09:04:52.789Z,101031.94
2022-08-24T09:07:40.946Z,101013.44
2022-08-24T09:10:51.349Z,101028.31
2022-08-24T09:14:19.809Z,100987.25
2022-08-24T09:17:13.449Z,101017.44
2022-08-24T09:20:14.002Z,101016.03
2022-08-24T09:23:14.762Z,101004.75
2022-08-24T09:26:22.191Z,101002.63
2022-08-24T09:29:18.236Z,101004.03
2022-08-24T09:32:21.570Z,101001.28
2022-08-24T09:35:13.171Z,101020.97
2022-08-24T09:38:22.945Z,101046.88
2022-08-24T09:41:27.100Z,101000.78
2022-08-24T09:44:31.372Z,101000.75
2022-08-24T09:47:31.710Z,101018.16
2022-08-24T09:50:36.490Z,101002.03
2022-08-24T09:53:33.664Z,101007.41
2022-08-24T09:56:34.424Z,100991.88
2022-08-24T09:59:50.586Z,101007.84
2022-08-24T10:03:03.759Z,100989.09
2022-08-24T10:06:10.331Z,100996.34
2022-08-24T10:09:25.853Z,101005.13
2022-08-24T10:12:32.816Z,101020.16
2022-08-24T10:15:31.428Z,101014.91
2022-08-24T10:18:43.592Z,101026.56
2022-08-24T10:21:31.572Z,101006.91
2022-08-24T10:24:29.826Z,101029.00
2022-08-24T10:27:24.601Z,101062.66
2022-08-24T10:30:37.666Z,100999.38
2022-08-24T10:33:37.293Z,101028.13
2022-08-24T10:36:47.356Z,100999.25
2022-08-24T10:40:06.003Z,101049.94
2022-08-24T10:43:36.496Z,100990.81
2022-08-24T10:46:30.678Z,100998.03
2022-08-24T10:49:34.587Z,101012.94
2022-08-24T10:52:50.584Z,100991.19
2022-08-24T10:55:35.975Z,100989.38
2022-08-24T10:58:39.784Z,101013.13
2022-08-24T11:01:35.155Z,100980.50
2022-08-24T11:04:29.935Z,100995.56
2022-08-24T11:07:15.026Z,101019.22
2022-08-24T11:10:03.796Z,100990.66
2022-08-24T11:12:48.848Z,100990.31
2022-08-24T11:15:51.867Z,100966.78
2022-08-24T11:18:47.554Z,100956.31
2022-08-24T11:21:49.239Z,100960.00
2022-08-24T11:24:45.261Z,100948.66
2022-08-24T11:27:38.277Z,100953.63
2022-08-24T11:30:26.400Z,100968.66
2022-08-24T11:33:26.888Z,100959.44
2022-08-24T11:36:22.195Z,100956.97
2022-08-24T11:39:13.397Z,101001.88
2022-08-24T11:42:04.795Z,100969.47
2022-08-24T11:44:58.113Z,100976.69
2022-08-24T11:47:58.410Z,100963.63
2022-08-24T11:50:46.904Z,100956.44
2022-08-24T11:54:03.861Z,100959.47
2022-08-24T11:57:21.007Z,100963.13
2022-08-24T12:00:11.895Z,100960.00
2022-08-24T12:03:34.853Z,100984.88
2022-08-24T12:06:38.333Z,100949.53
2022-08-24T12:09:29.667Z,100924.88
2022-08-24T12:12:20.570Z,100912.47
2022-08-24T12:15:16.346Z,100952.72
2022-08-24T12:18:17.683Z,100931.97
2022-08-24T12:21:03.166Z,100929.50
2022-08-24T12:23:58.603Z,100914.91
2022-08-24T12:26:50.948Z,100916.50
2022-08-24T12:29:52.253Z,100953.72
2022-08-24T12:32:48.582Z,100917.25
2022-08-24T12:35:52.953Z,100952.72
2022-08-24T12:38:47.312Z,100955.16
2022-08-24T12:41:36.224Z,100935.16
2022-08-24T12:44:26.371Z,100936.88
2022-08-24T12:47:13.507Z,100945.53
2022-08-24T12:50:10.516Z,100938.22
2022-08-24T12:52:58.875Z,100899.09
2022-08-24T12:56:13.284Z,100906.66
2022-08-24T12:59:15.649Z,100892.84
2022-08-24T13:02:15.159Z,100876.66
2022-08-24T13:05:11.623Z,100892.44
2022-08-24T13:08:25.461Z,100895.66
2022-08-24T13:11:32.998Z,100899.69
2022-08-24T13:14:25.029Z,100894.13
2022-08-24T13:17:12.028Z,100886.63
2022-08-24T13:20:23.183Z,100894.94
2022-08-24T13:23:11.126Z,100901.97
2022-08-24T13:26:18.014Z,100870.59
2022-08-24T13:29:03.375Z,100905.31
2022-08-24T13:31:53.512Z,100908.56
2022-08-24T13:34:45.013Z,100904.44
2022-08-24T13:37:30.345Z,100868.78
2022-08-24T13:40:27.746Z,100874.19
2022-08-24T13:43:23.392Z,100865.19
2022-08-24T13:46:27.197Z,100879.53
2022-08-24T13:49:15.531Z,100890.06
2022-08-24T13:52:16.374Z,100879.44
2022-08-24T13:55:13.497Z,100867.59
2022-08-24T13:58:36.686Z,100867.75
2022-08-24T14:01:34.444Z,100863.22
2022-08-24T14:04:25.825Z,100867.09
2022-08-24T14:07:23.105Z,100868.91
2022-08-24T14:10:31.397Z,100885.88
2022-08-24T14:13:36.290Z,100864.84
2022-08-24T14:17:19.545Z,100902.16
2022-08-24T14:20:33.346Z,100864.72
2022-08-24T14:23:33.767Z,100844.53
2022-08-24T14:26:34.639Z,100869.38
2022-08-24T14:29:19.385Z,100852.47
2022-08-24T14:32:12.167Z,100832.81
2022-08-24T14:35:22.134Z,100822.78
2022-08-24T14:38:19.874Z,100876.19
2022-08-24T14:41:08.089Z,100925.31
2022-08-24T14:44:19.809Z,100838.94
2022-08-24T14:47:05.049Z,100863.59
2022-08-24T14:50:23.244Z,100831.28
2022-08-24T14:53:26.498Z,100899.19
2022-08-24T14:56:39.631Z,100826.66
2022-08-24T15:00:02.526Z,100839.38
2022-08-24T15:02:47.472Z,100909.94
2022-08-24T15:05:32.825Z,100845.56
2022-08-24T15:08:38.106Z,100838.72
2022-08-24T15:11:26.528Z,100822.91
2022-08-24T15:14:24.649Z,100909.75
2022-08-24T15:17:28.997Z,100823.88
2022-08-24T15:20:39.273Z,100819.16
2022-08-24T15:23:52.230Z,100814.56
2022-08-24T15:26:59.367Z,100861.53
2022-08-24T15:29:58.845Z,100806.72
2022-08-24T15:32:48.030Z,100797.75
2022-08-24T15:35:43.571Z,100828.13
2022-08-24T15:38:28.801Z,100896.72
2022-08-24T15:41:19.238Z,100800.97
2022-08-24T15:44:24.458Z,100792.72
2022-08-24T15:47:17.674Z,100822.97
2022-08-24T15:50:08.309Z,100849.50
2022-08-24T15:53:00.472Z,100901.91
2022-08-24T15:55:49.136Z,100805.88
2022-08-24T15:58:39.037Z,100798.38
2022-08-24T16:01:25.571Z,100813.13
2022-08-24T16:04:14.281Z,100796.34
2022-08-24T16:06:59.338Z,100873.09
2022-08-24T16:09:44.645Z,100842.06
2022-08-24T16:12:32.601Z,100804.81
2022-08-24T16:15:19.352Z,100928.38
2022-08-24T16:18:05.198Z,100822.69
2022-08-24T16:20:50.746Z,100836.56
2022-08-24T16:23:36.763Z,100857.53
2022-08-24T16:26:25.513Z,100812.22
2022-08-24T16:29:36.410Z,100897.56
2022-08-24T16:32:32.696Z,100854.22
2022-08-24T16:35:36.363Z,100804.72
2022-08-24T16:38:21.370Z,100811.00
2022-08-24T16:41:11.024Z,100833.59
2022-08-24T16:43:57.348Z,100824.97
2022-08-24T16:46:42.635Z,100811.75
2022-08-24T16:49:34.214Z,100855.69
2022-08-24T16:52:20.193Z,100825.13
2022-08-24T16:55:06.129Z,100827.06
2022-08-24T16:57:51.494Z,100880.09
2022-08-24T17:00:36.867Z,100826.84
2022-08-24T17:03:22.490Z,100839.81
2022-08-24T17:06:07.439Z,100811.78
2022-08-24T17:08:52.555Z,100816.88
2022-08-24T17:11:37.527Z,100854.97
2022-08-24T17:14:22.533Z,100823.19
2022-08-24T17:17:12.704Z,100821.28
2022-08-24T17:19:58.081Z,100835.28
2022-08-24T17:22:42.998Z,100822.91
2022-08-24T17:25:28.813Z,100827.19
2022-08-24T17:28:17.992Z,100839.03
2022-08-24T17:31:03.180Z,100838.13
2022-08-24T17:33:48.459Z,100830.72
2022-08-24T17:36:34.483Z,100832.47
2022-08-24T17:39:21.094Z,100856.69
2022-08-24T17:42:21.028Z,100849.00
2022-08-24T17:45:11.998Z,100930.16
2022-08-24T17:47:57.424Z,100924.63
2022-08-24T17:50:42.342Z,100921.97
2022-08-24T17:53:27.272Z,100946.59
2022-08-24T17:56:14.923Z,100963.63
2022-08-24T17:59:00.005Z,100955.94
2022-08-24T18:01:44.995Z,100944.31
2022-08-24T18:04:32.574Z,100950.06
2022-08-24T18:07:35.979Z,100975.88
2022-08-24T18:10:28.712Z,101000.47
2022-08-24T18:13:14.361Z,101002.09
2022-08-24T18:15:59.757Z,100997.41
2022-08-24T18:18:45.246Z,100981.59
2022-08-24T18:21:30.459Z,100941.41
2022-08-24T18:24:15.368Z,100912.16
2022-08-24T18:27:02.971Z,100951.28
2022-08-24T18:29:58.950Z,100939.00
2022-08-24T18:32:46.570Z,100945.19
2022-08-24T18:35:31.891Z,100968.13
2022-08-24T18:38:16.770Z,100989.53
2022-08-24T18:41:02.446Z,100984.44
2022-08-24T18:43:47.594Z,100998.41
2022-08-24T18:46:32.956Z,101008.59
2022-08-24T18:49:19.916Z,100986.03
2022-08-24T18:52:08.469Z,100989.97
2022-08-24T18:54:54.322Z,101019.69
2022-08-24T18:57:39.362Z,100985.53
2022-08-24T19:00:24.990Z,101023.94
2022-08-24T19:03:15.025Z,101034.81
2022-08-24T19:06:00.238Z,101005.22
2022-08-24T19:08:45.132Z,100953.75
2022-08-24T19:11:30.026Z,100957.41
2022-08-24T19:14:16.109Z,100932.78
2022-08-24T19:17:01.210Z,100938.75
2022-08-24T19:19:46.616Z,100920.03
2022-08-24T19:22:32.086Z,100947.81
2022-08-24T19:25:24.287Z,100930.94
2022-08-24T19:28:09.802Z,100947.59
2022-08-24T19:30:57.006Z,100944.72
2022-08-24T19:33:45.109Z,100949.31
2022-08-24T19:36:31.104Z,100944.09
2022-08-24T19:39:17.882Z,100935.41
2022-08-24T19:42:11.038Z,100945.03
2022-08-24T19:44:57.728Z,100958.38
2022-08-24T19:47:43.023Z,100973.50
2022-08-24T19:50:28.570Z,100958.03
2022-08-24T19:53:13.917Z,100961.94
2022-08-24T19:55:59.549Z,100983.19
2022-08-24T19:58:59.602Z,100960.44
2022-08-24T20:01:44.663Z,100974.84
2022-08-24T20:04:29.985Z,100948.09
2022-08-24T20:07:17.118Z,100950.19
2022-08-24T20:10:12.531Z,100955.78
2022-08-24T20:12:59.278Z,100950.78
2022-08-24T20:15:44.437Z,100958.75
2022-08-24T20:18:32.081Z,100962.41
2022-08-24T20:21:17.006Z,100968.66
2022-08-24T20:24:02.454Z,100958.41
2022-08-24T20:26:47.749Z,100960.38
2022-08-24T20:29:33.017Z,100999.66
2022-08-24T20:32:18.038Z,100961.31
2022-08-24T20:35:03.659Z,100994.97
2022-08-24T20:37:49.537Z,100959.31
2022-08-24T20:40:35.124Z,100976.97
2022-08-24T20:43:20.617Z,100962.25
2022-08-24T20:46:06.004Z,100963.25
2022-08-24T20:48:55.641Z,100961.69
2022-08-24T20:51:41.250Z,100967.78
2022-08-24T20:54:28.261Z,100973.16
2022-08-24T20:57:16.850Z,100975.94
2022-08-24T21:00:02.050Z,100966.53
2022-08-24T21:02:47.319Z,100977.16
2022-08-24T21:05:32.839Z,100970.44
2022-08-24T21:08:18.162Z,100972.50
2022-08-24T21:11:03.329Z,100996.19
2022-08-24T21:13:48.607Z,100974.34
2022-08-24T21:16:36.212Z,100994.78
2022-08-24T21:19:21.457Z,100982.78
2022-08-24T21:22:06.837Z,100975.31
2022-08-24T21:24:52.484Z,100981.75
2022-08-24T21:27:40.676Z,100997.84
2022-08-24T21:30:25.865Z,100990.03
2022-08-24T21:33:11.242Z,100992.72
2022-08-24T21:35:56.318Z,100989.47
2022-08-24T21:38:45.477Z,100988.22
2022-08-24T21:41:30.833Z,100997.69
2022-08-24T21:44:16.045Z,100996.91
2022-08-24T21:47:01.428Z,100999.78
2022-08-24T21:49:46.400Z,101024.56
2022-08-24T21:52:31.373Z,100998.41
2022-08-24T21:55:16.880Z,101002.19
2022-08-24T21:58:02.247Z,101034.06
2022-08-24T22:00:47.296Z,101017.84
2022-08-24T22:03:39.942Z,101028.56
2022-08-24T22:06:30.485Z,101025.28
2022-08-24T22:09:16.363Z,101035.06
2022-08-24T22:12:01.939Z,101019.19
2022-08-24T22:14:47.399Z,101026.38
2022-08-24T22:17:32.306Z,101043.22
2022-08-24T22:20:23.151Z,101035.56
2022-08-24T22:23:08.986Z,101050.47
2022-08-24T22:25:54.552Z,101050.63
2022-08-24T22:28:41.916Z,101051.59
2022-08-24T22:31:30.496Z,101065.84
2022-08-24T22:34:20.067Z,101068.75
2022-08-24T22:37:06.046Z,101028.75
2022-08-24T22:39:51.280Z,101020.88
2022-08-24T22:42:37.073Z,101034.88
2022-08-24T22:45:22.651Z,101028.00
2022-08-24T22:48:08.131Z,101042.22
2022-08-24T22:50:53.428Z,101025.84
2022-08-24T22:53:40.012Z,101047.88
2022-08-24T22:56:32.883Z,101028.97
2022-08-24T22:59:23.894Z,101033.56
2022-08-24T23:02:13.221Z,101047.75
2022-08-24T23:04:58.205Z,101027.59
2022-08-24T23:07:43.688Z,101040.81
2022-08-24T23:10:28.481Z,101022.53
2022-08-24T23:13:14.079Z,101028.69
2022-08-24T23:16:08.212Z,101029.50
2022-08-24T23:18:53.804Z,101054.94
2022-08-24T23:21:38.909Z,101046.09
2022-08-24T23:24:24.243Z,101067.22
2022-08-24T23:27:10.943Z,101048.75
2022-08-24T23:29:55.997Z,101044.41
2022-08-24T23:32:40.918Z,101039.38
2022-08-24T23:35:26.598Z,101052.63
2022-08-24T23:38:11.814Z,101045.69
2022-08-24T23:40:57.106Z,101052.97
2022-08-24T23:43:42.939Z,101056.56
2022-08-24T23:46:28.375Z,101054.19
2022-08-24T23:49:15.123Z,101064.84
2022-08-24T23:52:00.627Z,101053.59
2022-08-24T23:54:46.154Z,101060.03
2022-08-24T23:57:31.559Z,101059.44
